createdAt,value
2022-08-26T00:00:23.883Z,1010.81
2022-08-26T00:01:24.365Z,1010.81
2022-08-26T00:02:23.912Z,1010.80
2022-08-26T00:03:23.838Z,1010.80
2022-08-26T00:04:24.216Z,1010.80
2022-08-26T00:05:23.820Z,1010.79
2022-08-26T00:06:23.815Z,1010.79
2022-08-26T00:07:23.829Z,1010.81
2022-08-26T00:08:23.798Z,1010.80
2022-08-26T00:09:23.792Z,1010.79
2022-08-26T00:10:23.793Z,1010.77
2022-08-26T00:11:26.757Z,1010.76
2022-08-26T00:12:31.585Z,1010.75
2022-08-26T00:13:23.740Z,1010.74
2022-08-26T00:14:28.293Z,1010.76
2022-08-26T00:15:23.726Z,1010.77
2022-08-26T00:16:23.802Z,1010.78
2022-08-26T00:17:23.694Z,1010.76
2022-08-26T00:18:23.701Z,1010.77
2022-08-26T00:19:23.817Z,1010.76
2022-08-26T00:20:23.722Z,1010.75
2022-08-26T00:21:23.654Z,1010.74
2022-08-26T00:22:23.649Z,1010.73
2022-08-26T00:23:24.267Z,1010.71
2022-08-26T00:24:23.675Z,1010.70
2022-08-26T00:25:23.609Z,1010.68
2022-08-26T00:26:23.603Z,1010.67
2022-08-26T00:27:23.595Z,1010.67
2022-08-26T00:28:23.580Z,1010.66
2022-08-26T00:29:23.583Z,1010.67
2022-08-26T00:30:24.146Z,1010.67
2022-08-26T00:31:23.566Z,1010.68
2022-08-26T00:32:23.548Z,1010.69
2022-08-26T00:33:23.536Z,1010.69
2022-08-26T00:34:23.544Z,1010.68
2022-08-26T00:35:23.523Z,1010.67
2022-08-26T00:36:23.528Z,1010.66
2022-08-26T00:37:23.491Z,1010.65
2022-08-26T00:38:23.479Z,1010.63
2022-08-26T00:39:23.488Z,1010.61
2022-08-26T00:40:23.498Z,1010.61
2022-08-26T00:41:23.457Z,1010.61
2022-08-26T00:42:23.436Z,1010.62
2022-08-26T00:43:23.439Z,1010.62
2022-08-26T00:44:23.438Z,1010.61
2022-08-26T00:45:23.429Z,1010.59
2022-08-26T00:46:23.401Z,1010.60
2022-08-26T00:47:23.386Z,1010.60
2022-08-26T00:48:23.374Z,1010.59
2022-08-26T00:49:23.379Z,1010.59
2022-08-26T00:50:23.361Z,1010.57
2022-08-26T00:51:23.338Z,1010.57
2022-08-26T00:52:23.341Z,1010.56
2022-08-26T00:53:24.114Z,1010.55
2022-08-26T00:54:23.333Z,1010.54
2022-08-26T00:55:23.298Z,1010.54
2022-08-26T00:56:23.299Z,1010.54
2022-08-26T00:57:23.283Z,1010.54
2022-08-26T00:58:23.275Z,1010.54
2022-08-26T00:59:23.280Z,1010.54
2022-08-26T01:00:23.272Z,1010.54
2022-08-26T01:01:23.395Z,1010.53
2022-08-26T01:02:23.269Z,1010.53
2022-08-26T01:03:23.211Z,1010.53
2022-08-26T01:04:23.225Z,1010.51
2022-08-26T01:05:23.207Z,1010.52
2022-08-26T01:06:23.212Z,1010.52
2022-08-26T01:07:23.182Z,1010.54
2022-08-26T01:08:23.169Z,1010.55
2022-08-26T01:09:23.202Z,1010.53
2022-08-26T01:10:23.140Z,1010.55
2022-08-26T01:11:23.147Z,1010.54
2022-08-26T01:12:23.124Z,1010.54
2022-08-26T01:13:23.132Z,1010.54
2022-08-26T01:14:23.119Z,1010.54
2022-08-26T01:15:23.103Z,1010.53
2022-08-26T01:16:23.118Z,1010.54
2022-08-26T01:17:23.084Z,1010.53
2022-08-26T01:18:23.055Z,1010.53
2022-08-26T01:19:23.100Z,1010.56
2022-08-26T01:20:23.050Z,1010.56
2022-08-26T01:21:23.036Z,1010.56
2022-08-26T01:22:23.040Z,1010.54
2022-08-26T01:23:23.045Z,1010.53
2022-08-26T01:24:23.007Z,1010.53
2022-08-26T01:25:22.986Z,1010.52
2022-08-26T01:26:22.976Z,1010.52
2022-08-26T01:27:22.969Z,1010.52
2022-08-26T01:28:22.950Z,1010.52
2022-08-26T01:29:22.985Z,1010.52
2022-08-26T01:30:22.934Z,1010.51
2022-08-26T01:31:22.959Z,1010.52
2022-08-26T01:32:23.401Z,1010.51
2022-08-26T01:33:22.912Z,1010.50
2022-08-26T01:34:22.913Z,1010.52
2022-08-26T01:35:22.890Z,1010.51
2022-08-26T01:36:22.875Z,1010.51
2022-08-26T01:37:22.863Z,1010.50
2022-08-26T01:38:23.743Z,1010.48
2022-08-26T01:39:22.863Z,1010.47
2022-08-26T01:40:22.921Z,1010.46
2022-08-26T01:41:27.395Z,1010.46
2022-08-26T01:42:22.831Z,1010.46
2022-08-26T01:43:22.805Z,1010.48
2022-08-26T01:44:22.811Z,1010.48
2022-08-26T01:45:22.787Z,1010.49
2022-08-26T01:46:22.765Z,1010.49
2022-08-26T01:47:22.775Z,1010.48
2022-08-26T01:48:22.746Z,1010.47
2022-08-26T01:49:22.759Z,1010.46
2022-08-26T01:50:28.032Z,1010.44
2022-08-26T01:51:22.729Z,1010.41
2022-08-26T01:52:22.702Z,1010.40
2022-08-26T01:53:22.701Z,1010.39
2022-08-26T01:54:23.019Z,1010.38
2022-08-26T01:55:33.287Z,1010.37
2022-08-26T01:56:22.670Z,1010.36
2022-08-26T01:57:22.655Z,1010.35
2022-08-26T01:58:22.670Z,1010.35
2022-08-26T01:59:22.652Z,1010.35
2022-08-26T02:00:22.617Z,1010.36
2022-08-26T02:01:22.671Z,1010.36
2022-08-26T02:02:22.635Z,1010.36
2022-08-26T02:03:22.604Z,1010.36
2022-08-26T02:04:22.664Z,1010.35
2022-08-26T02:05:22.608Z,1010.34
2022-08-26T02:06:22.560Z,1010.35
2022-08-26T02:07:22.564Z,1010.36
2022-08-26T02:08:24.819Z,1010.36
2022-08-26T02:09:22.554Z,1010.36
2022-08-26T02:10:22.530Z,1010.36
2022-08-26T02:11:22.512Z,1010.36
2022-08-26T02:12:22.497Z,1010.37
2022-08-26T02:13:22.554Z,1010.36
2022-08-26T02:14:22.493Z,1010.36
2022-08-26T02:15:22.473Z,1010.36
2022-08-26T02:16:22.496Z,1010.35
2022-08-26T02:17:22.443Z,1010.34
2022-08-26T02:18:22.448Z,1010.34
2022-08-26T02:19:22.447Z,1010.34
2022-08-26T02:20:22.416Z,1010.32
2022-08-26T02:21:22.414Z,1010.29
2022-08-26T02:22:22.398Z,1010.30
2022-08-26T02:23:24.390Z,1010.30
2022-08-26T02:24:22.388Z,1010.31
2022-08-26T02:25:22.385Z,1010.33
2022-08-26T02:26:22.348Z,1010.34
2022-08-26T02:27:22.338Z,1010.34
2022-08-26T02:28:22.322Z,1010.34
2022-08-26T02:29:22.342Z,1010.34
2022-08-26T02:30:22.310Z,1010.34
2022-08-26T02:31:22.393Z,1010.34
2022-08-26T02:32:22.287Z,1010.32
2022-08-26T02:33:22.278Z,1010.32
2022-08-26T02:34:22.304Z,1010.32
2022-08-26T02:35:22.271Z,1010.32
2022-08-26T02:36:22.243Z,1010.32
2022-08-26T02:37:23.049Z,1010.29
2022-08-26T02:38:22.228Z,1010.30
2022-08-26T02:39:22.542Z,1010.30
2022-08-26T02:40:22.254Z,1010.28
2022-08-26T02:41:23.036Z,1010.28
2022-08-26T02:42:22.211Z,1010.28
2022-08-26T02:43:31.188Z,1010.27
2022-08-26T02:44:22.182Z,1010.27
2022-08-26T02:45:23.321Z,1010.27
2022-08-26T02:46:27.947Z,1010.25
2022-08-26T02:47:24.793Z,1010.27
2022-08-26T02:48:22.125Z,1010.27
2022-08-26T02:49:22.175Z,1010.26
2022-08-26T02:50:22.166Z,1010.26
2022-08-26T02:51:22.157Z,1010.25
2022-08-26T02:52:22.077Z,1010.24
2022-08-26T02:53:25.330Z,1010.22
2022-08-26T02:54:22.089Z,1010.21
2022-08-26T02:55:22.045Z,1010.19
2022-08-26T02:56:22.031Z,1010.18
2022-08-26T02:57:22.244Z,1010.16
2022-08-26T02:58:22.010Z,1010.15
2022-08-26T02:59:24.357Z,1010.14
2022-08-26T03:00:22.055Z,1010.13
2022-08-26T03:01:22.073Z,1010.13
2022-08-26T03:02:22.031Z,1010.15
2022-08-26T03:03:23.441Z,1010.13
2022-08-26T03:04:22.012Z,1010.15
2022-08-26T03:05:21.967Z,1010.14
2022-08-26T03:06:21.930Z,1010.13
2022-08-26T03:07:21.926Z,1010.12
2022-08-26T03:08:21.915Z,1010.12
2022-08-26T03:09:21.919Z,1010.12
2022-08-26T03:10:21.895Z,1010.13
2022-08-26T03:11:21.892Z,1010.12
2022-08-26T03:12:21.871Z,1010.12
2022-08-26T03:13:21.875Z,1010.11
2022-08-26T03:14:21.872Z,1010.10
2022-08-26T03:15:21.861Z,1010.10
2022-08-26T03:16:21.912Z,1010.09
2022-08-26T03:17:21.846Z,1010.08
2022-08-26T03:18:21.810Z,1010.09
2022-08-26T03:19:21.821Z,1010.07
2022-08-26T03:20:21.797Z,1010.06
2022-08-26T03:21:21.772Z,1010.05
2022-08-26T03:22:21.765Z,1010.05
2022-08-26T03:23:21.761Z,1010.04
2022-08-26T03:24:21.765Z,1010.04
2022-08-26T03:25:21.777Z,1010.03
2022-08-26T03:26:21.722Z,1010.02
2022-08-26T03:27:21.719Z,1010.02
2022-08-26T03:28:21.706Z,1010.02
2022-08-26T03:29:21.715Z,1010.02
2022-08-26T03:30:21.704Z,1010.02
2022-08-26T03:31:21.710Z,1010.03
2022-08-26T03:32:21.694Z,1010.04
2022-08-26T03:33:21.670Z,1010.03
2022-08-26T03:34:21.660Z,1010.03
2022-08-26T03:35:22.486Z,1010.00
2022-08-26T03:36:21.633Z,1010.00
2022-08-26T03:37:21.751Z,1009.98
2022-08-26T03:38:21.591Z,1009.98
2022-08-26T03:39:21.681Z,1009.99
2022-08-26T03:40:21.643Z,1010.01
2022-08-26T03:41:21.585Z,1010.00
2022-08-26T03:42:21.663Z,1010.00
2022-08-26T03:43:21.546Z,1009.99
2022-08-26T03:44:21.554Z,1009.99
2022-08-26T03:45:21.533Z,1009.99
2022-08-26T03:46:21.561Z,1009.98
2022-08-26T03:47:21.448Z,1009.99
2022-08-26T03:48:21.438Z,1009.98
2022-08-26T03:49:21.446Z,1009.98
2022-08-26T03:50:22.856Z,1009.98
2022-08-26T03:51:21.426Z,1009.96
2022-08-26T03:52:21.403Z,1009.95
2022-08-26T03:53:21.389Z,1009.94
2022-08-26T03:54:21.378Z,1009.94
2022-08-26T03:55:21.386Z,1009.93
2022-08-26T03:56:21.381Z,1009.90
2022-08-26T03:57:21.359Z,1009.89
2022-08-26T03:58:21.337Z,1009.88
2022-08-26T03:59:21.335Z,1009.89
2022-08-26T04:00:21.332Z,1009.91
2022-08-26T04:01:21.405Z,1009.92
2022-08-26T04:02:21.294Z,1009.92
2022-08-26T04:03:21.335Z,1009.91
2022-08-26T04:04:22.787Z,1009.90
2022-08-26T04:05:21.263Z,1009.89
2022-08-26T04:06:21.246Z,1009.89
2022-08-26T04:07:21.237Z,1009.88
2022-08-26T04:08:21.245Z,1009.87
2022-08-26T04:09:21.273Z,1009.87
2022-08-26T04:10:21.203Z,1009.85
2022-08-26T04:11:21.207Z,1009.87
2022-08-26T04:12:21.201Z,1009.86
2022-08-26T04:13:21.195Z,1009.85
2022-08-26T04:14:21.187Z,1009.85
2022-08-26T04:15:21.160Z,1009.86
2022-08-26T04:16:21.194Z,1009.87
2022-08-26T04:17:24.926Z,1009.89
2022-08-26T04:18:21.125Z,1009.92
2022-08-26T04:19:21.149Z,1009.93
2022-08-26T04:20:21.109Z,1009.95
2022-08-26T04:21:21.099Z,1009.96
2022-08-26T04:22:24.978Z,1009.97
2022-08-26T04:23:21.072Z,1009.99
2022-08-26T04:24:21.074Z,1009.98
2022-08-26T04:25:21.059Z,1009.97
2022-08-26T04:26:21.049Z,1009.97
2022-08-26T04:27:21.094Z,1009.97
2022-08-26T04:28:21.019Z,1009.95
2022-08-26T04:29:21.027Z,1009.93
2022-08-26T04:30:20.998Z,1009.93
2022-08-26T04:31:21.070Z,1009.92
2022-08-26T04:32:21.012Z,1009.89
2022-08-26T04:33:32.331Z,1009.88
2022-08-26T04:34:20.976Z,1009.89
2022-08-26T04:35:25.438Z,1009.89
2022-08-26T04:36:20.966Z,1009.89
2022-08-26T04:37:20.925Z,1009.90
2022-08-26T04:38:20.912Z,1009.86
2022-08-26T04:39:20.928Z,1009.84
2022-08-26T04:40:20.961Z,1009.84
2022-08-26T04:41:20.882Z,1009.86
2022-08-26T04:42:26.019Z,1009.86
2022-08-26T04:43:20.867Z,1009.87
2022-08-26T04:44:20.871Z,1009.87
2022-08-26T04:45:22.938Z,1009.87
2022-08-26T04:46:20.885Z,1009.85
2022-08-26T04:47:20.824Z,1009.86
2022-08-26T04:48:20.822Z,1009.84
2022-08-26T04:49:20.826Z,1009.83
2022-08-26T04:50:20.784Z,1009.82
2022-08-26T04:51:20.780Z,1009.82
2022-08-26T04:52:20.777Z,1009.81
2022-08-26T04:53:20.764Z,1009.82
2022-08-26T04:54:20.751Z,1009.82
2022-08-26T04:55:20.816Z,1009.81
2022-08-26T04:56:20.768Z,1009.82
2022-08-26T04:57:20.714Z,1009.82
2022-08-26T04:58:20.789Z,1009.81
2022-08-26T04:59:20.716Z,1009.82
2022-08-26T05:00:20.690Z,1009.81
2022-08-26T05:01:20.761Z,1009.81
2022-08-26T05:02:20.662Z,1009.79
2022-08-26T05:03:20.658Z,1009.80
2022-08-26T05:04:20.697Z,1009.80
2022-08-26T05:05:20.675Z,1009.81
2022-08-26T05:06:20.621Z,1009.82
2022-08-26T05:07:20.624Z,1009.83
2022-08-26T05:08:20.610Z,1009.85
2022-08-26T05:09:20.642Z,1009.86
2022-08-26T05:10:20.574Z,1009.87
2022-08-26T05:11:20.568Z,1009.86
2022-08-26T05:12:20.560Z,1009.89
2022-08-26T05:13:20.702Z,1009.89
2022-08-26T05:14:20.708Z,1009.90
2022-08-26T05:15:20.531Z,1009.91
2022-08-26T05:16:20.597Z,1009.92
2022-08-26T05:17:20.510Z,1009.94
2022-08-26T05:18:20.566Z,1009.95
2022-08-26T05:19:21.201Z,1009.97
2022-08-26T05:20:25.161Z,1009.99
2022-08-26T05:21:20.577Z,1010.00
2022-08-26T05:22:20.515Z,1010.00
2022-08-26T05:23:20.492Z,1010.01
2022-08-26T05:24:20.557Z,1010.02
2022-08-26T05:25:20.482Z,1010.02
2022-08-26T05:26:22.969Z,1010.02
2022-08-26T05:27:20.447Z,1010.03
2022-08-26T05:28:20.479Z,1010.05
2022-08-26T05:29:20.456Z,1010.07
2022-08-26T05:30:20.420Z,1010.08
2022-08-26T05:31:20.469Z,1010.09
2022-08-26T05:32:20.396Z,1010.09
2022-08-26T05:33:20.392Z,1010.09
2022-08-26T05:34:20.423Z,1010.08
2022-08-26T05:35:20.369Z,1010.08
2022-08-26T05:36:20.345Z,1010.08
2022-08-26T05:37:20.370Z,1010.09
2022-08-26T05:38:20.352Z,1010.08
2022-08-26T05:39:20.342Z,1010.08
2022-08-26T05:40:20.328Z,1010.08
2022-08-26T05:41:20.299Z,1010.07
2022-08-26T05:42:20.321Z,1010.06
2022-08-26T05:43:20.326Z,1010.06
2022-08-26T05:44:20.252Z,1010.05
2022-08-26T05:45:20.270Z,1010.05
2022-08-26T05:46:20.273Z,1010.04
2022-08-26T05:47:20.247Z,1010.03
2022-08-26T05:48:22.698Z,1010.04
2022-08-26T05:49:20.216Z,1010.04
2022-08-26T05:50:20.352Z,1010.03
2022-08-26T05:51:24.035Z,1010.01
2022-08-26T05:52:20.319Z,1010.02
2022-08-26T05:53:20.143Z,1010.05
2022-08-26T05:54:22.315Z,1010.07
2022-08-26T05:55:20.102Z,1010.07
2022-08-26T05:56:20.100Z,1010.08
2022-08-26T05:57:20.095Z,1010.06
2022-08-26T05:58:20.120Z,1010.06
2022-08-26T05:59:24.130Z,1010.06
2022-08-26T06:00:20.070Z,1010.06
2022-08-26T06:01:21.481Z,1010.06
2022-08-26T06:02:20.123Z,1010.06
2022-08-26T06:03:20.064Z,1010.07
2022-08-26T06:04:20.118Z,1010.06
2022-08-26T06:05:20.036Z,1010.07
2022-08-26T06:06:20.773Z,1010.07
2022-08-26T06:07:20.045Z,1010.05
2022-08-26T06:08:20.162Z,1010.06
2022-08-26T06:09:19.985Z,1010.06
2022-08-26T06:10:31.994Z,1010.05
2022-08-26T06:11:20.017Z,1010.04
2022-08-26T06:12:19.960Z,1010.03
2022-08-26T06:13:19.928Z,1010.03
2022-08-26T06:14:20.019Z,1010.03
2022-08-26T06:15:20.032Z,1010.03
2022-08-26T06:16:20.035Z,1010.02
2022-08-26T06:17:19.951Z,1010.02
2022-08-26T06:18:19.902Z,1010.02
2022-08-26T06:19:19.944Z,1010.01
2022-08-26T06:20:19.871Z,1010.01
2022-08-26T06:21:19.851Z,1010.00
2022-08-26T06:22:23.496Z,1010.01
2022-08-26T06:23:19.863Z,1010.01
2022-08-26T06:24:20.047Z,1010.00
2022-08-26T06:25:19.832Z,1010.00
2022-08-26T06:26:19.797Z,1010.01
2022-08-26T06:27:19.773Z,1010.00
2022-08-26T06:28:19.768Z,1009.99
2022-08-26T06:29:24.064Z,1009.99
2022-08-26T06:30:19.753Z,1009.99
2022-08-26T06:31:19.787Z,1009.98
2022-08-26T06:32:19.739Z,1009.97
2022-08-26T06:33:19.757Z,1009.97
2022-08-26T06:34:20.062Z,1009.96
2022-08-26T06:35:19.703Z,1009.96
2022-08-26T06:36:19.740Z,1009.94
2022-08-26T06:37:19.672Z,1009.94
2022-08-26T06:38:19.701Z,1009.94
2022-08-26T06:39:19.689Z,1009.93
2022-08-26T06:40:19.679Z,1009.93
2022-08-26T06:41:19.628Z,1009.93
2022-08-26T06:42:19.639Z,1009.94
2022-08-26T06:43:19.608Z,1009.96
2022-08-26T06:44:19.620Z,1009.97
2022-08-26T06:45:19.583Z,1009.97
2022-08-26T06:46:19.633Z,1009.98
2022-08-26T06:47:19.568Z,1009.97
2022-08-26T06:48:19.556Z,1009.98
2022-08-26T06:49:26.641Z,1009.97
2022-08-26T06:50:19.567Z,1009.97
2022-08-26T06:51:19.524Z,1009.95
2022-08-26T06:52:24.285Z,1009.96
2022-08-26T06:53:19.510Z,1009.96
2022-08-26T06:54:19.516Z,1009.97
2022-08-26T06:55:19.480Z,1009.95
2022-08-26T06:56:19.512Z,1009.96
2022-08-26T06:57:19.462Z,1009.95
2022-08-26T06:58:19.469Z,1009.95
2022-08-26T06:59:19.455Z,1009.96
2022-08-26T07:00:19.430Z,1009.97
2022-08-26T07:01:19.714Z,1009.96
2022-08-26T07:02:19.550Z,1009.95
2022-08-26T07:03:19.414Z,1009.95
2022-08-26T07:04:20.217Z,1009.94
2022-08-26T07:05:19.385Z,1009.94
2022-08-26T07:06:19.389Z,1009.92
2022-08-26T07:07:22.045Z,1009.91
2022-08-26T07:08:19.353Z,1009.90
2022-08-26T07:09:19.404Z,1009.90
2022-08-26T07:10:19.330Z,1009.89
2022-08-26T07:11:19.335Z,1009.86
2022-08-26T07:12:19.310Z,1009.87
2022-08-26T07:13:30.615Z,1009.87
2022-08-26T07:14:21.434Z,1009.86
2022-08-26T07:15:19.281Z,1009.85
2022-08-26T07:16:19.342Z,1009.85
2022-08-26T07:17:19.255Z,1009.84
2022-08-26T07:18:19.246Z,1009.84
2022-08-26T07:19:30.014Z,1009.83
2022-08-26T07:20:19.233Z,1009.84
2022-08-26T07:21:19.207Z,1009.83
2022-08-26T07:22:19.214Z,1009.82
2022-08-26T07:23:19.188Z,1009.80
2022-08-26T07:24:19.206Z,1009.77
2022-08-26T07:25:19.463Z,1009.74
2022-08-26T07:26:19.171Z,1009.69
2022-08-26T07:27:19.146Z,1009.68
2022-08-26T07:28:19.153Z,1009.67
2022-08-26T07:29:19.140Z,1009.65
2022-08-26T07:30:19.138Z,1009.65
2022-08-26T07:31:19.158Z,1009.63
2022-08-26T07:32:19.111Z,1009.64
2022-08-26T07:33:19.120Z,1009.64
2022-08-26T07:34:19.097Z,1009.64
2022-08-26T07:35:19.093Z,1009.62
2022-08-26T07:36:19.055Z,1009.63
2022-08-26T07:37:19.111Z,1009.63
2022-08-26T07:38:19.040Z,1009.61
2022-08-26T07:39:19.143Z,1009.61
2022-08-26T07:40:19.113Z,1009.60
2022-08-26T07:41:19.054Z,1009.60
2022-08-26T07:42:19.008Z,1009.57
2022-08-26T07:43:18.985Z,1009.58
2022-08-26T07:44:19.000Z,1009.58
2022-08-26T07:45:18.964Z,1009.57
2022-08-26T07:46:20.752Z,1009.58
2022-08-26T07:47:24.735Z,1009.58
2022-08-26T07:48:18.948Z,1009.58
2022-08-26T07:49:18.973Z,1009.55
2022-08-26T07:50:18.946Z,1009.56
2022-08-26T07:51:18.898Z,1009.55
2022-08-26T07:52:20.713Z,1009.55
2022-08-26T07:53:19.442Z,1009.54
2022-08-26T07:54:18.924Z,1009.54
2022-08-26T07:55:18.899Z,1009.55
2022-08-26T07:56:18.856Z,1009.54
2022-08-26T07:57:19.195Z,1009.55
2022-08-26T07:58:18.858Z,1009.54
2022-08-26T07:59:18.879Z,1009.53
2022-08-26T08:00:18.823Z,1009.54
2022-08-26T08:01:18.885Z,1009.53
2022-08-26T08:02:18.807Z,1009.52
2022-08-26T08:03:18.777Z,1009.53
2022-08-26T08:04:21.884Z,1009.52
2022-08-26T08:05:18.888Z,1009.53
2022-08-26T08:06:18.757Z,1009.54
2022-08-26T08:07:18.740Z,1009.55
2022-08-26T08:08:27.984Z,1009.57
2022-08-26T08:09:18.809Z,1009.60
2022-08-26T08:10:18.813Z,1009.61
2022-08-26T08:11:18.700Z,1009.62
2022-08-26T08:12:18.693Z,1009.62
2022-08-26T08:13:18.732Z,1009.62
2022-08-26T08:14:18.721Z,1009.62
2022-08-26T08:15:18.656Z,1009.64
2022-08-26T08:16:18.662Z,1009.63
2022-08-26T08:17:18.669Z,1009.63
2022-08-26T08:18:20.493Z,1009.63
2022-08-26T08:19:18.651Z,1009.62
2022-08-26T08:20:18.658Z,1009.63
2022-08-26T08:21:21.974Z,1009.62
2022-08-26T08:22:19.837Z,1009.60
2022-08-26T08:23:18.590Z,1009.61
2022-08-26T08:24:18.632Z,1009.60
2022-08-26T08:25:18.554Z,1009.60
2022-08-26T08:26:18.557Z,1009.57
2022-08-26T08:27:23.550Z,1009.58
2022-08-26T08:28:18.534Z,1009.57
2022-08-26T08:29:18.572Z,1009.56
2022-08-26T08:30:20.921Z,1009.53
2022-08-26T08:31:21.622Z,1009.54
2022-08-26T08:32:18.512Z,1009.53
2022-08-26T08:33:18.478Z,1009.51
2022-08-26T08:34:18.485Z,1009.52
2022-08-26T08:35:18.452Z,1009.51
2022-08-26T08:36:20.454Z,1009.51
2022-08-26T08:37:18.435Z,1009.52
2022-08-26T08:38:18.445Z,1009.47
2022-08-26T08:39:18.531Z,1009.47
2022-08-26T08:40:18.713Z,1009.45
2022-08-26T08:41:18.521Z,1009.44
2022-08-26T08:42:18.400Z,1009.42
2022-08-26T08:43:18.432Z,1009.40
2022-08-26T08:44:18.467Z,1009.37
2022-08-26T08:45:18.464Z,1009.37
2022-08-26T08:46:18.407Z,1009.37
2022-08-26T08:47:18.328Z,1009.36
2022-08-26T08:48:18.336Z,1009.37
2022-08-26T08:49:18.317Z,1009.36
2022-08-26T08:50:18.383Z,1009.36
2022-08-26T08:51:18.286Z,1009.38
2022-08-26T08:52:18.281Z,1009.37
2022-08-26T08:53:18.269Z,1009.36
2022-08-26T08:54:18.277Z,1009.33
2022-08-26T08:55:18.726Z,1009.31
2022-08-26T08:56:18.249Z,1009.32
2022-08-26T08:57:18.256Z,1009.29
2022-08-26T08:58:19.177Z,1009.29
2022-08-26T08:59:18.234Z,1009.27
2022-08-26T09:00:18.257Z,1009.28
2022-08-26T09:01:18.218Z,1009.28
2022-08-26T09:02:18.202Z,1009.27
2022-08-26T09:03:18.190Z,1009.27
2022-08-26T09:04:18.178Z,1009.27
2022-08-26T09:05:18.165Z,1009.25
2022-08-26T09:06:18.148Z,1009.26
2022-08-26T09:07:18.138Z,1009.27
2022-08-26T09:08:19.905Z,1009.26
2022-08-26T09:09:18.136Z,1009.26
2022-08-26T09:10:18.217Z,1009.26
2022-08-26T09:11:18.079Z,1009.24
2022-08-26T09:12:18.079Z,1009.24
2022-08-26T09:13:25.332Z,1009.22
2022-08-26T09:14:18.064Z,1009.22
2022-08-26T09:15:18.043Z,1009.21
2022-08-26T09:16:19.150Z,1009.19
2022-08-26T09:17:18.018Z,1009.20
2022-08-26T09:18:18.035Z,1009.17
2022-08-26T09:19:18.948Z,1009.19
2022-08-26T09:20:18.034Z,1009.19
2022-08-26T09:21:18.027Z,1009.17
2022-08-26T09:22:18.006Z,1009.18
2022-08-26T09:23:18.211Z,1009.20
2022-08-26T09:24:18.167Z,1009.19
2022-08-26T09:25:18.066Z,1009.18
2022-08-26T09:26:17.934Z,1009.18
2022-08-26T09:27:17.930Z,1009.16
2022-08-26T09:28:17.934Z,1009.14
2022-08-26T09:29:17.974Z,1009.16
2022-08-26T09:30:17.891Z,1009.17
2022-08-26T09:31:17.917Z,1009.18
2022-08-26T09:32:17.864Z,1009.18
2022-08-26T09:33:17.871Z,1009.17
2022-08-26T09:34:17.981Z,1009.20
2022-08-26T09:35:17.835Z,1009.20
2022-08-26T09:36:17.832Z,1009.19
2022-08-26T09:37:17.819Z,1009.20
2022-08-26T09:38:17.815Z,1009.18
2022-08-26T09:39:17.793Z,1009.17
2022-08-26T09:40:17.948Z,1009.17
2022-08-26T09:41:17.782Z,1009.15
2022-08-26T09:42:17.769Z,1009.14
2022-08-26T09:43:24.528Z,1009.11
2022-08-26T09:44:17.733Z,1009.08
2022-08-26T09:45:20.904Z,1009.09
2022-08-26T09:46:17.863Z,1009.08
2022-08-26T09:47:17.710Z,1009.07
2022-08-26T09:48:17.752Z,1009.08
2022-08-26T09:49:17.689Z,1009.07
2022-08-26T09:50:17.681Z,1009.06
2022-08-26T09:51:17.691Z,1009.06
2022-08-26T09:52:17.665Z,1009.04
2022-08-26T09:53:17.668Z,1009.03
2022-08-26T09:54:20.637Z,1009.00
2022-08-26T09:55:17.625Z,1009.00
2022-08-26T09:56:17.614Z,1008.99
2022-08-26T09:57:17.607Z,1008.96
2022-08-26T09:58:17.611Z,1008.93
2022-08-26T09:59:18.860Z,1008.91
2022-08-26T10:00:17.570Z,1008.89
2022-08-26T10:01:17.655Z,1008.88
2022-08-26T10:02:17.554Z,1008.85
2022-08-26T10:03:17.557Z,1008.81
2022-08-26T10:04:17.605Z,1008.77
2022-08-26T10:05:17.530Z,1008.75
2022-08-26T10:06:17.505Z,1008.73
2022-08-26T10:07:17.507Z,1008.71
2022-08-26T10:08:17.502Z,1008.69
2022-08-26T10:09:17.485Z,1008.67
2022-08-26T10:10:17.467Z,1008.66
2022-08-26T10:11:17.463Z,1008.65
2022-08-26T10:12:17.451Z,1008.63
2022-08-26T10:13:17.451Z,1008.60
2022-08-26T10:14:17.424Z,1008.59
2022-08-26T10:15:17.422Z,1008.54
2022-08-26T10:16:17.470Z,1008.54
2022-08-26T10:17:17.398Z,1008.52
2022-08-26T10:18:17.404Z,1008.51
2022-08-26T10:19:17.392Z,1008.47
2022-08-26T10:20:23.358Z,1008.46
2022-08-26T10:21:17.835Z,1008.44
2022-08-26T10:22:17.338Z,1008.41
2022-08-26T10:23:17.375Z,1008.40
2022-08-26T10:24:17.335Z,1008.37
2022-08-26T10:25:17.329Z,1008.35
2022-08-26T10:26:17.303Z,1008.32
2022-08-26T10:27:17.312Z,1008.31
2022-08-26T10:28:17.284Z,1008.30
2022-08-26T10:29:17.280Z,1008.28
2022-08-26T10:30:17.271Z,1008.27
2022-08-26T10:31:17.263Z,1008.25
2022-08-26T10:32:17.279Z,1008.25
2022-08-26T10:33:18.103Z,1008.23
2022-08-26T10:34:17.220Z,1008.23
2022-08-26T10:35:17.217Z,1008.22
2022-08-26T10:36:17.213Z,1008.17
2022-08-26T10:37:17.212Z,1008.17
2022-08-26T10:38:17.185Z,1008.16
2022-08-26T10:39:17.197Z,1008.14
2022-08-26T10:40:17.225Z,1008.12
2022-08-26T10:41:18.051Z,1008.10
2022-08-26T10:42:17.163Z,1008.08
2022-08-26T10:43:17.129Z,1008.08
2022-08-26T10:44:17.117Z,1008.04
2022-08-26T10:45:17.121Z,1008.03
2022-08-26T10:46:17.263Z,1008.01
2022-08-26T10:47:17.109Z,1007.99
2022-08-26T10:48:17.078Z,1007.96
2022-08-26T10:49:17.067Z,1007.96
2022-08-26T10:50:17.976Z,1007.96
2022-08-26T10:51:17.049Z,1007.93
2022-08-26T10:52:17.053Z,1007.94
2022-08-26T10:53:17.038Z,1007.93
2022-08-26T10:54:17.036Z,1007.94
2022-08-26T10:55:17.003Z,1007.91
2022-08-26T10:56:19.176Z,1007.91
2022-08-26T10:57:17.006Z,1007.88
2022-08-26T10:58:26.739Z,1007.88
2022-08-26T10:59:16.972Z,1007.85
2022-08-26T11:00:16.945Z,1007.84
2022-08-26T11:01:17.018Z,1007.81
2022-08-26T11:02:19.452Z,1007.76
2022-08-26T11:03:21.733Z,1007.76
2022-08-26T11:04:16.967Z,1007.73
2022-08-26T11:05:16.903Z,1007.72
2022-08-26T11:06:16.895Z,1007.71
2022-08-26T11:07:16.894Z,1007.70
2022-08-26T11:08:16.869Z,1007.68
2022-08-26T11:09:16.862Z,1007.69
2022-08-26T11:10:16.872Z,1007.68
2022-08-26T11:11:16.847Z,1007.67
2022-08-26T11:12:16.855Z,1007.68
2022-08-26T11:13:16.819Z,1007.69
2022-08-26T11:14:16.809Z,1007.68
2022-08-26T11:15:16.800Z,1007.68
2022-08-26T11:16:16.794Z,1007.68
2022-08-26T11:17:16.799Z,1007.67
2022-08-26T11:18:16.767Z,1007.65
2022-08-26T11:19:16.754Z,1007.63
2022-08-26T11:20:16.837Z,1007.62
2022-08-26T11:21:16.737Z,1007.62
2022-08-26T11:22:16.753Z,1007.60
2022-08-26T11:23:16.719Z,1007.61
2022-08-26T11:24:16.700Z,1007.59
2022-08-26T11:25:18.282Z,1007.59
2022-08-26T11:26:35.915Z,1007.61
2022-08-26T11:27:16.722Z,1007.60
2022-08-26T11:28:16.661Z,1007.55
2022-08-26T11:29:16.653Z,1007.54
2022-08-26T11:30:18.400Z,1007.50
2022-08-26T11:31:16.678Z,1007.46
2022-08-26T11:32:16.629Z,1007.45
2022-08-26T11:33:16.611Z,1007.42
2022-08-26T11:34:16.597Z,1007.40
2022-08-26T11:35:16.601Z,1007.38
2022-08-26T11:36:16.581Z,1007.36
2022-08-26T11:37:16.622Z,1007.35
2022-08-26T11:38:16.559Z,1007.31
2022-08-26T11:39:16.547Z,1007.33
2022-08-26T11:40:16.557Z,1007.33
2022-08-26T11:41:16.532Z,1007.34
2022-08-26T11:42:16.534Z,1007.35
2022-08-26T11:43:16.506Z,1007.34
2022-08-26T11:44:16.493Z,1007.33
2022-08-26T11:45:16.484Z,1007.32
2022-08-26T11:46:16.500Z,1007.31
2022-08-26T11:47:16.484Z,1007.29
2022-08-26T11:48:16.446Z,1007.27
2022-08-26T11:49:16.450Z,1007.27
2022-08-26T11:50:16.428Z,1007.27
2022-08-26T11:51:16.425Z,1007.28
2022-08-26T11:52:16.436Z,1007.30
2022-08-26T11:53:16.405Z,1007.32
2022-08-26T11:54:16.400Z,1007.35
2022-08-26T11:55:16.385Z,1007.36
2022-08-26T11:56:16.364Z,1007.38
2022-08-26T11:57:16.393Z,1007.38
2022-08-26T11:58:16.350Z,1007.38
2022-08-26T11:59:16.366Z,1007.40
2022-08-26T12:00:20.508Z,1007.49
2022-08-26T12:01:16.331Z,1007.49
2022-08-26T12:02:16.322Z,1007.48
2022-08-26T12:03:16.357Z,1007.50
2022-08-26T12:04:16.411Z,1007.52
2022-08-26T12:05:16.282Z,1007.53